Flight Track Log - Related Links

Times and Time Zones

All times are in EDT time to prevent confusion due to time zone crossing. See the XOJ549 flight status page for this flight to view local times or setup timezone preferences in your user account.

Time Position Orientation Groundspeed Altitude Reporting Facility
EDT Latitude Longitude Course Direction KTS MPH feet Rate Location/Type
Wed 12:23:57 PM 40.8000 -72.6667 237° Southwest 204 235 3,500  Level New York TRACON
Wed 12:24:57 PM 40.7500 -72.6000 135° Southeast 285 328 7,100 3,000 Climbing New York TRACON
Wed 12:26:07 PM 40.6831 -72.5906 174° South 237 273 10,000 1,662 Climbing Boston Center
Wed 12:27:07 PM 40.6475 -72.6644 238° Southwest 174 200 10,700 1,700 Climbing Boston Center
Wed 12:28:07 PM 40.6494 -72.7575 272° West 200 230 13,400 2,850 Climbing Boston Center
Wed 12:29:00 PM 40.4535 -73.1096 237° Southwest  Level FlightAware Approximate
Wed 12:29:07 PM 40.6469 -72.8558 268° West 224 258 16,400  Level Boston Center
Wed 12:30:07 PM 40.6194 -72.9622 251° West 276 318 18,900 1,300 Climbing Boston Center
Wed 12:31:07 PM 40.5897 -73.0797 252° West 314 361 19,000 117 Climbing Boston Center
Wed 12:32:41 PM 40.5461 -73.2483 251° West 348 400 19,200 857 Climbing New York Center
Wed 12:33:41 PM 40.5144 -73.3672 251° West 348 400 21,200 2,136 Climbing New York Center
Wed 12:34:39 PM 40.5175 -73.5039 272° West 353 406 23,400 2,168 Climbing New York Center
Wed 12:35:40 PM 40.5225 -73.6433 273° West 371 427 25,500 1,951 Climbing New York Center
Wed 12:36:42 PM 40.5272 -73.7881 273° West 384 442 27,400 1,950 Climbing New York Center
Wed 12:37:40 PM 40.5314 -73.9494 272° West 403 464 29,400 1,729 Climbing New York Center
Wed 12:38:40 PM 40.5378 -74.0972 273° West 412 474 30,800 1,388 Climbing New York Center
Wed 12:39:41 PM 40.5461 -74.2369 275° West 426 490 32,200 1,412 Climbing New York Center
Wed 12:40:39 PM 40.5347 -74.4111 265° West 426 490 33,600 1,513 Climbing New York Center
Wed 12:41:40 PM 40.5089 -74.5681 258° West 432 497 35,200 1,610 Climbing New York Center
Wed 12:42:42 PM 40.4694 -74.6939 248° West 426 490 36,900 1,587 Climbing New York Center
Wed 12:43:41 PM 40.4025 -74.8211 235° Southwest 426 490 38,400 1,261 Climbing New York Center
Wed 12:44:41 PM 40.3225 -74.9661 234° Southwest 439 505 39,400 942 Climbing New York Center
Wed 12:45:42 PM 40.2511 -75.0950 234° Southwest 439 505 40,300 915 Climbing New York Center
Wed 12:46:39 PM 40.1903 -75.2161 237° Southwest 444 511 41,200 872 Climbing New York Center
Wed 12:47:39 PM 40.1350 -75.3567 243° Southwest 438 504 42,000 793 Climbing New York Center
Wed 12:48:40 PM 40.0747 -75.5072 242° Southwest 438 504 42,800 738 Climbing New York Center
Wed 12:49:41 PM 40.0239 -75.6311 242° Southwest 438 504 43,500 555 Climbing New York Center
Wed 12:50:39 PM 39.9656 -75.7789 243° Southwest 431 496 43,900 380 Climbing New York Center
Wed 12:52:19 PM 39.8775 -75.9997 243° Southwest 425 489 44,500 418 Climbing Washington Center
Wed 12:53:17 PM 39.8228 -76.1344 242° Southwest 420 483 45,000 254 Climbing Washington Center
Wed 12:54:17 PM 39.7658 -76.2664 241° Southwest 425 489 45,000  Level Washington Center
Wed 12:55:18 PM 39.7089 -76.4008 241° Southwest 425 489 45,000  Level Washington Center
Wed 12:56:18 PM 39.6536 -76.5347 242° Southwest 425 489 45,000  Level Washington Center
Wed 12:57:19 PM 39.5983 -76.6714 242° Southwest 430 495 45,000  Level Washington Center
Wed 12:58:19 PM 39.5428 -76.8078 242° Southwest 430 495 45,000  Level Washington Center
Wed 12:59:17 PM 39.5039 -76.9497 250° West 430 495 45,000  Level Washington Center
Wed 01:00:18 PM 39.4731 -77.0969 255° West 430 495 45,000  Level Washington Center
Wed 01:01:19 PM 39.4419 -77.2469 255° West 430 495 45,000  Level Washington Center
Wed 01:02:19 PM 39.4153 -77.3619 253° West 425 489 45,000  Level Washington Center
Wed 01:03:19 PM 39.3769 -77.5408 255° West 425 489 45,000  Level Washington Center
Wed 01:04:17 PM 39.3453 -77.6928 255° West 435 501 45,000  Level Washington Center
Wed 01:05:18 PM 39.3114 -77.8422 254° West 435 501 45,000  Level Washington Center
Wed 01:06:19 PM 39.2861 -77.9619 255° West 435 501 45,000  Level Washington Center
Wed 01:07:19 PM 39.2450 -78.1431 254° West 435 501 45,000  Level Washington Center
Wed 01:08:17 PM 39.2103 -78.2917 253° West 435 501 45,000  Level Washington Center
Wed 01:09:17 PM 39.1572 -78.4317 244° Southwest 435 501 45,000  Level Washington Center
Wed 01:10:18 PM 39.0956 -78.5658 239° Southwest 435 501 45,000  Level Washington Center
Wed 01:11:19 PM 39.0358 -78.6994 240° Southwest 435 501 45,000  Level Washington Center
Wed 01:12:19 PM 38.9739 -78.8331 239° Southwest 435 501 45,000  Level Washington Center
Wed 01:13:17 PM 38.9139 -78.9667 240° Southwest 435 501 45,000  Level Washington Center
Wed 01:14:18 PM 38.8519 -79.0997 239° Southwest 440 506 45,000  Level Washington Center
Wed 01:15:19 PM 38.7894 -79.2353 239° Southwest 440 506 45,000  Level Washington Center
Wed 01:16:17 PM 38.7289 -79.3733 241° Southwest 440 506 45,000  Level Washington Center
Wed 01:17:17 PM 38.6642 -79.5083 238° Southwest 440 506 45,000  Level Washington Center
Wed 01:18:18 PM 38.6011 -79.6456 240° Southwest 440 506 45,000  Level Washington Center
Wed 01:19:19 PM 38.5428 -79.7672 239° Southwest 445 512 45,000  Level Washington Center
Wed 01:20:17 PM 38.4817 -79.9017 240° Southwest 445 512 45,000  Level Washington Center
Wed 01:21:17 PM 38.4161 -80.0383 239° Southwest 445 512 45,000  Level Washington Center
Wed 01:22:18 PM 38.3439 -80.1875 238° Southwest 450 518 45,000  Level Washington Center
Wed 01:23:18 PM 38.2803 -80.3214 239° Southwest 450 518 45,000  Level Washington Center
Wed 01:24:19 PM 38.2144 -80.4544 238° Southwest 450 518 45,000  Level Washington Center
Wed 01:26:20 PM 38.0811 -80.7203 238° Southwest 449 517 45,000  Level Indianapolis Center
Wed 01:27:22 PM 38.0175 -80.8542 239° Southwest 445 512 45,000  Level Indianapolis Center
Wed 01:28:23 PM 37.9503 -80.9889 238° Southwest 449 517 45,000  Level Indianapolis Center
Wed 01:29:25 PM 37.8836 -81.1242 238° Southwest 450 518 45,000  Level Indianapolis Center
Wed 01:30:27 PM 37.8092 -81.2764 238° Southwest 451 519 45,000  Level Indianapolis Center
Wed 01:31:28 PM 37.7458 -81.4067 238° Southwest 449 517 45,000  Level Indianapolis Center
Wed 01:32:30 PM 37.6764 -81.5442 237° Southwest 450 518 45,000  Level Indianapolis Center
Wed 01:33:32 PM 37.6108 -81.6761 238° Southwest 444 511 45,000  Level Indianapolis Center
Wed 01:34:33 PM 37.5439 -81.8106 238° Southwest 451 519 45,000  Level Indianapolis Center
Wed 01:35:35 PM 37.4750 -81.9439 237° Southwest 454 522 45,000  Level Indianapolis Center
Wed 01:36:37 PM 37.3956 -82.1014 238° Southwest 456 525 45,000  Level Indianapolis Center
Wed 01:37:38 PM 37.3281 -82.2358 238° Southwest 455 524 45,000  Level Indianapolis Center
Wed 01:38:40 PM 37.2589 -82.3714 237° Southwest 462 532 45,000  Level Indianapolis Center
Wed 01:39:42 PM 37.1908 -82.5058 238° Southwest 460 529 45,000  Level Indianapolis Center
Wed 01:40:43 PM 37.1214 -82.6408 237° Southwest 460 529 45,000  Level Indianapolis Center
Wed 01:41:45 PM 37.0519 -82.7758 237° Southwest 461 531 45,000  Level Indianapolis Center
Wed 01:42:46 PM 36.9731 -82.9206 236° Southwest 467 537 45,000  Level Indianapolis Center
Wed 01:43:48 PM 36.9019 -83.0639 238° Southwest 466 536 45,000  Level Indianapolis Center
Wed 01:44:50 PM 36.8319 -83.1983 237° Southwest 464 534 45,000  Level Indianapolis Center
Wed 01:46:03 PM 36.7619 -83.3322 237° Southwest 459 528 45,000  Level Indianapolis Center
Wed 01:47:05 PM 36.6664 -83.5106 236° Southwest 463 533 45,000 -145 Level Indianapolis Center
Wed 01:48:07 PM 36.5953 -83.6456 237° Southwest 467 537 44,700 -387 Descending Indianapolis Center
Wed 01:49:09 PM 36.5222 -83.7783 236° Southwest 468 539 44,200 -634 Descending Indianapolis Center
Wed 01:50:10 PM 36.4492 -83.9189 237° Southwest 467 537 43,400 -585 Descending Indianapolis Center
Wed 01:51:12 PM 36.3803 -84.0581 238° Southwest 473 544 43,000 -195 Descending Indianapolis Center
Wed 01:52:13 PM 36.3286 -84.2058 247° West 467 537 43,000  Level Indianapolis Center
Wed 01:53:15 PM 36.2758 -84.3542 246° West 470 541 43,000  Level Indianapolis Center
Wed 01:54:17 PM 36.2231 -84.5011 246° West 469 540 43,000  Level Indianapolis Center
Wed 01:55:18 PM 36.1592 -84.6783 246° West 471 542 43,000  Level Indianapolis Center
Wed 01:56:20 PM 36.0961 -84.8192 241° Southwest 472 543 43,000  Level Indianapolis Center
Wed 01:58:19 PM 35.9569 -85.0900 238° Southwest 492 566 43,000  Level Memphis Center
Wed 01:59:19 PM 35.8792 -85.2206 234° Southwest 492 566 43,000  Level Memphis Center
Wed 02:00:19 PM 35.8011 -85.3558 235° Southwest 492 566 43,000  Level Memphis Center
Wed 02:02:42 PM 35.6133 -85.6814 235° Southwest 476 548 43,000  Level Atlanta Center
Wed 02:03:42 PM 35.5344 -85.8125 234° Southwest 476 548 43,000  Level Atlanta Center
Wed 02:04:42 PM 35.4594 -85.9433 235° Southwest 476 548 43,000  Level Atlanta Center
Wed 02:05:42 PM 35.3822 -86.0717 234° Southwest 476 548 43,000  Level Atlanta Center
Wed 02:06:42 PM 35.3050 -86.2019 234° Southwest 476 548 43,000  Level Atlanta Center
Wed 02:07:42 PM 35.2294 -86.3322 235° Southwest 470 541 43,000  Level Atlanta Center
Wed 02:09:31 PM 35.0992 -86.5525 234° Southwest 453 521 43,000  Level Memphis Center
Wed 02:10:31 PM 35.0278 -86.6750 235° Southwest 445 512 43,000  Level Memphis Center
Wed 02:11:31 PM 34.9522 -86.8025 234° Southwest 456 525 43,000  Level Memphis Center
Wed 02:12:31 PM 34.8703 -86.9350 233° Southwest 483 556 43,000  Level Memphis Center
Wed 02:13:31 PM 34.7886 -87.0775 235° Southwest 483 556 43,000  Level Memphis Center
Wed 02:14:31 PM 34.7106 -87.2017 233° Southwest 470 541 43,000  Level Memphis Center
Wed 02:15:31 PM 34.6342 -87.3231 233° Southwest 470 541 43,000  Level Memphis Center
Wed 02:16:31 PM 34.5700 -87.4314 234° Southwest 462 532 43,000  Level Memphis Center
Wed 02:17:31 PM 34.4894 -87.5575 232° Southwest 461 531 43,000  Level Memphis Center
Wed 02:18:31 PM 34.4150 -87.6833 234° Southwest 466 536 43,000  Level Memphis Center
Wed 02:19:31 PM 34.3383 -87.8067 233° Southwest 466 536 43,000  Level Memphis Center
Wed 02:20:31 PM 34.2556 -87.9397 233° Southwest 466 536 43,000  Level Memphis Center
Wed 02:21:31 PM 34.1764 -88.0650 233° Southwest 466 536 43,000  Level Memphis Center
Wed 02:22:31 PM 34.1014 -88.1875 234° Southwest 466 536 43,000  Level Memphis Center
Wed 02:23:31 PM 34.0222 -88.3197 234° Southwest 478 550 43,000  Level Memphis Center
Wed 02:24:31 PM 33.9469 -88.4417 233° Southwest 473 544 43,000  Level Memphis Center
Wed 02:25:31 PM 33.8717 -88.5608 233° Southwest 468 539 43,000  Level Memphis Center
Wed 02:26:31 PM 33.7961 -88.6825 233° Southwest 468 539 43,000  Level Memphis Center
Wed 02:27:31 PM 33.7183 -88.8014 232° Southwest 468 539 43,000  Level Memphis Center
Wed 02:28:31 PM 33.6467 -88.9225 235° Southwest 463 533 43,000  Level Memphis Center
Wed 02:29:31 PM 33.5708 -89.0433 233° Southwest 463 533 43,000  Level Memphis Center
Wed 02:30:31 PM 33.4928 -89.1617 232° Southwest 463 533 43,000  Level Memphis Center
Wed 02:31:31 PM 33.4167 -89.2797 232° Southwest 463 533 43,000  Level Memphis Center
Wed 02:32:31 PM 33.3547 -89.3747 232° Southwest 463 533 43,000  Level Memphis Center
Wed 02:33:31 PM 33.2619 -89.5200 233° Southwest 463 533 43,000  Level Memphis Center
Wed 02:34:31 PM 33.1833 -89.6400 232° Southwest 463 533 43,000  Level Memphis Center
Wed 02:35:31 PM 33.1108 -89.7594 234° Southwest 463 533 43,000  Level Memphis Center
Wed 02:36:31 PM 33.0467 -89.8592 233° Southwest 469 540 43,000  Level Memphis Center
Wed 02:37:31 PM 32.9553 -89.9958 231° Southwest 475 547 43,000  Level Memphis Center
Wed 02:38:31 PM 32.8742 -90.1172 232° Southwest 480 552 43,000  Level Memphis Center
Wed 02:39:31 PM 32.7950 -90.2336 231° Southwest 469 540 43,000  Level Memphis Center
Wed 02:40:31 PM 32.7158 -90.3525 232° Southwest 469 540 43,000  Level Memphis Center
Wed 02:41:31 PM 32.6364 -90.4733 232° Southwest 469 540 43,000  Level Memphis Center
Wed 02:42:31 PM 32.5569 -90.5914 231° Southwest 469 540 43,000  Level Memphis Center
Wed 02:43:31 PM 32.4772 -90.7119 232° Southwest 469 540 43,000  Level Memphis Center
Wed 02:44:31 PM 32.3872 -90.8444 231° Southwest 469 540 43,000  Level Memphis Center
Wed 02:45:05 PM 32.3539 -90.8969 233° Southwest 463 533 43,000  Level Houston Center
Wed 02:46:07 PM 32.2750 -91.0167 232° Southwest 464 534 43,000  Level Houston Center
Wed 02:47:09 PM 32.1956 -91.1333 231° Southwest 459 528 43,000  Level Houston Center
Wed 02:48:12 PM 32.1006 -91.2747 232° Southwest 460 529 43,000  Level Houston Center
Wed 02:49:14 PM 32.0206 -91.3911 231° Southwest 457 526 43,000  Level Houston Center
Wed 02:50:16 PM 31.9453 -91.5122 234° Southwest 459 528 43,000  Level Houston Center
Wed 02:51:18 PM 31.8853 -91.6467 242° Southwest 463 533 43,000  Level Houston Center
Wed 02:52:20 PM 31.8233 -91.7786 241° Southwest 461 531 43,000  Level Houston Center
Wed 02:53:22 PM 31.7619 -91.9100 241° Southwest 461 531 43,000  Level Houston Center
Wed 02:54:24 PM 31.6847 -92.0703 241° Southwest 466 536 43,000  Level Houston Center
Wed 02:55:27 PM 31.6225 -92.2017 241° Southwest 461 531 43,000  Level Houston Center
Wed 02:56:29 PM 31.5608 -92.3322 241° Southwest 458 527 43,000  Level Houston Center
Wed 02:57:31 PM 31.5003 -92.4631 242° Southwest 457 526 43,000  Level Houston Center
Wed 02:58:33 PM 31.4378 -92.5981 242° Southwest 472 543 43,000  Level Houston Center
Wed 02:59:35 PM 31.3733 -92.7339 241° Southwest 480 552 43,000  Level Houston Center
Wed 03:00:37 PM 31.2950 -92.8908 240° Southwest 471 542 43,000  Level Houston Center
Wed 03:01:40 PM 31.2314 -93.0233 241° Southwest 469 540 43,000  Level Houston Center
Wed 03:02:42 PM 31.1647 -93.1561 240° Southwest 467 537 43,000  Level Houston Center
Wed 03:03:44 PM 31.1036 -93.2861 241° Southwest 469 540 43,000 -290 Level Houston Center
Wed 03:04:46 PM 31.0397 -93.4164 240° Southwest 467 537 42,400 -774 Descending Houston Center
Wed 03:05:48 PM 30.9625 -93.5736 240° Southwest 469 540 41,400 -1,258 Descending Houston Center
Wed 03:06:50 PM 30.9000 -93.7033 241° Southwest 464 534 39,800 -2,032 Descending Houston Center
Wed 03:07:52 PM 30.8372 -93.8308 240° Southwest 460 529 37,200 -2,640 Descending Houston Center
Wed 03:08:55 PM 30.7739 -93.9575 240° Southwest 458 527 34,300 -3,408 Descending Houston Center
Wed 03:09:57 PM 30.6950 -94.1172 240° Southwest 478 550 30,100 -3,823 Descending Houston Center
Wed 03:10:59 PM 30.6269 -94.2525 240° Southwest 489 563 26,400 -3,667 Descending Houston Center
Wed 03:11:45 PM 30.5742 -94.3611 241° Southwest 479 551 23,500 -3,533 Descending Houston Center
Wed 03:12:46 PM 30.5125 -94.4833 240° Southwest 422 486 20,100 -2,976 Descending Houston Center
Wed 03:13:48 PM 30.4492 -94.5886 235° Southwest 386 444 17,400 -2,829 Descending Houston Center
Wed 03:14:49 PM 30.3814 -94.6919 233° Southwest 379 436 14,300 -2,016 Descending Houston Center
Wed 03:15:50 PM 30.3231 -94.7842 234° Southwest 338 389 13,300 -927 Descending Houston Center
Wed 03:16:52 PM 30.2664 -94.8711 233° Southwest 344 396 12,400 -976 Descending Houston Center
Wed 03:17:53 PM 30.2058 -94.9633 233° Southwest 340 391 11,300 -984 Descending Houston Center
Wed 03:18:54 PM 30.1508 -95.0500 234° Southwest 325 374 10,400 -1,366 Descending Houston Center
Wed 03:19:56 PM 30.0794 -95.0950 209° Southwest 287 330 8,500 -1,220 Descending Houston Center
Wed 03:20:52 PM 30.0128 -95.1225 200° South 280 322 8,000 -256 Descending Houston Center
Wed 03:21:53 PM 29.9339 -95.1564 200° South 291 335 8,000 -609 Level Houston Center
Wed 03:23:00 PM 29.8511 -95.1931 201° Southwest 282 325 6,700 -930 Descending Houston Center
Wed 03:24:02 PM 29.7825 -95.2208 199° South 244 281 6,000 -344 Descending Houston Center
Wed 03:25:02 PM 29.7200 -95.2500 202° Southwest 225 259 6,000 -246 Level Houston Center
Wed 03:26:04 PM 29.7256 -95.3094 276° West 223 257 5,500 -878 Descending Houston Center
Wed 03:27:05 PM 29.7797 -95.3511 326° Northwest 245 282 4,200 -934 Descending Houston Center
Wed 03:28:06 PM 29.7844 -95.4033 276° West 188 216 3,600 -563 Descending Houston Center
Wed 03:29:13 PM 29.7322 -95.3833 162° South 186 214 3,000 -698 Descending Houston Center
Wed 03:30:15 PM 29.6992 -95.3439 134° Southeast 158 182 2,100 -1,024 Descending Houston Center
Wed 03:31:16 PM 29.6711 -95.3111 135° Southeast 137 158 900 -765 Descending Houston Center
Wed 03:32:44 PM 29.6378 -95.2706 133° Southeast 143 165 200 -477 Descending Houston Center

Login

Don't have an account? Register now (free) for customized features, flight alerts, and more!